Location Sebastian, FL, US

ob KFLSEBAS1 192010Z AUTO 12002G06KT CLR 31/25 A2999 RMK SLPNO 

2017.08.19 2010 UTC
Wind from the ESE (116 degrees) at 2.0 MPH (2 KT) gusting to 7.0 MPH (6 KT)
Visibility    Mile(s)
Sky Conditions  clear
Temperature 88.00 F (31 C)
Dew Point 77.42 F (25 C)
Relative Humidity 71%
Pressure   29.99 in. Hg (1016 hPa)
Rain  0.00 in.
Daily Rain  in.

Station Name  www.kflsebas1.com
Longitude, Latitude  -80.48, 27.8
Elevation 23
Station URL www.kflsebas1.com
Software Type VWS V15.00